sensor_id;sensor_type;location;lat;lon;timestamp;P1;durP1;ratioP1;P2;durP2;ratioP2
57433;SDS011;43277;52.672;6.984;2022-10-13T00:01:11;20.13;;;12.75;;
57433;SDS011;43277;52.672;6.984;2022-10-13T00:03:39;19.33;;;12.00;;
57433;SDS011;43277;52.672;6.984;2022-10-13T00:06:06;24.00;;;13.23;;
57433;SDS011;43277;52.672;6.984;2022-10-13T00:08:34;20.73;;;12.93;;
57433;SDS011;43277;52.672;6.984;2022-10-13T00:11:00;21.38;;;13.35;;
57433;SDS011;43277;52.672;6.984;2022-10-13T00:13:26;22.40;;;12.85;;
57433;SDS011;43277;52.672;6.984;2022-10-13T00:15:52;19.30;;;12.75;;
57433;SDS011;43277;52.672;6.984;2022-10-13T00:18:18;19.60;;;13.98;;
57433;SDS011;43277;52.672;6.984;2022-10-13T00:20:48;22.70;;;13.73;;
57433;SDS011;43277;52.672;6.984;2022-10-13T00:23:14;20.35;;;13.45;;
57433;SDS011;43277;52.672;6.984;2022-10-13T00:25:41;22.13;;;13.80;;
57433;SDS011;43277;52.672;6.984;2022-10-13T00:28:08;23.27;;;14.30;;
57433;SDS011;43277;52.672;6.984;2022-10-13T00:30:35;22.65;;;14.35;;
57433;SDS011;43277;52.672;6.984;2022-10-13T00:33:01;22.05;;;13.90;;
57433;SDS011;43277;52.672;6.984;2022-10-13T00:35:26;26.13;;;15.32;;
57433;SDS011;43277;52.672;6.984;2022-10-13T00:37:52;26.75;;;15.20;;
57433;SDS011;43277;52.672;6.984;2022-10-13T00:40:17;25.20;;;14.60;;
57433;SDS011;43277;52.672;6.984;2022-10-13T00:42:43;23.45;;;14.55;;
57433;SDS011;43277;52.672;6.984;2022-10-13T00:45:22;22.90;;;14.35;;
57433;SDS011;43277;52.672;6.984;2022-10-13T00:47:53;21.38;;;15.48;;
57433;SDS011;43277;52.672;6.984;2022-10-13T00:50:23;21.92;;;14.13;;
57433;SDS011;43277;52.672;6.984;2022-10-13T00:52:54;22.20;;;15.07;;
57433;SDS011;43277;52.672;6.984;2022-10-13T00:55:21;21.70;;;14.40;;
57433;SDS011;43277;52.672;6.984;2022-10-13T00:57:50;25.15;;;15.57;;
57433;SDS011;43277;52.672;6.984;2022-10-13T01:00:22;26.52;;;16.27;;
57433;SDS011;43277;52.672;6.984;2022-10-13T01:05:31;27.92;;;15.23;;
57433;SDS011;43277;52.672;6.984;2022-10-13T01:07:57;21.60;;;15.52;;
57433;SDS011;43277;52.672;6.984;2022-10-13T01:13:49;24.38;;;15.65;;
57433;SDS011;43277;52.672;6.984;2022-10-13T01:16:39;27.10;;;17.00;;
57433;SDS011;43277;52.672;6.984;2022-10-13T01:30:50;21.63;;;15.77;;
57433;SDS011;43277;52.672;6.984;2022-10-13T01:33:34;23.50;;;15.85;;
57433;SDS011;43277;52.672;6.984;2022-10-13T01:37:04;25.25;;;16.15;;
57433;SDS011;43277;52.672;6.984;2022-10-13T01:39:05;23.50;;;15.73;;
57433;SDS011;43277;52.672;6.984;2022-10-13T01:41:40;24.15;;;15.15;;
57433;SDS011;43277;52.672;6.984;2022-10-13T01:44:13;23.83;;;15.40;;
57433;SDS011;43277;52.672;6.984;2022-10-13T01:46:43;23.75;;;15.93;;
57433;SDS011;43277;52.672;6.984;2022-10-13T01:49:13;24.70;;;15.75;;
57433;SDS011;43277;52.672;6.984;2022-10-13T01:51:42;25.88;;;15.27;;
57433;SDS011;43277;52.672;6.984;2022-10-13T01:54:09;25.85;;;16.88;;
57433;SDS011;43277;52.672;6.984;2022-10-13T01:56:35;22.05;;;14.95;;
57433;SDS011;43277;52.672;6.984;2022-10-13T01:59:02;22.70;;;15.07;;
57433;SDS011;43277;52.672;6.984;2022-10-13T02:04:15;22.83;;;17.10;;
57433;SDS011;43277;52.672;6.984;2022-10-13T02:12:40;25.58;;;15.52;;
57433;SDS011;43277;52.672;6.984;2022-10-13T02:15:15;24.85;;;16.23;;
57433;SDS011;43277;52.672;6.984;2022-10-13T02:17:44;25.42;;;17.00;;
57433;SDS011;43277;52.672;6.984;2022-10-13T02:20:09;24.40;;;17.25;;
57433;SDS011;43277;52.672;6.984;2022-10-13T02:22:37;21.92;;;14.93;;
57433;SDS011;43277;52.672;6.984;2022-10-13T02:25:07;25.73;;;16.90;;
57433;SDS011;43277;52.672;6.984;2022-10-13T02:27:33;23.55;;;15.60;;
57433;SDS011;43277;52.672;6.984;2022-10-13T02:29:59;24.98;;;15.05;;
57433;SDS011;43277;52.672;6.984;2022-10-13T02:32:24;26.65;;;16.13;;
57433;SDS011;43277;52.672;6.984;2022-10-13T02:34:50;24.60;;;16.25;;
57433;SDS011;43277;52.672;6.984;2022-10-13T02:37:16;26.27;;;15.77;;
57433;SDS011;43277;52.672;6.984;2022-10-13T02:39:42;25.42;;;16.15;;
57433;SDS011;43277;52.672;6.984;2022-10-13T02:42:07;26.90;;;16.70;;
57433;SDS011;43277;52.672;6.984;2022-10-13T02:44:33;25.00;;;16.55;;
57433;SDS011;43277;52.672;6.984;2022-10-13T02:46:58;25.40;;;16.85;;
57433;SDS011;43277;52.672;6.984;2022-10-13T02:49:24;24.70;;;16.98;;
57433;SDS011;43277;52.672;6.984;2022-10-13T02:51:50;24.02;;;15.70;;
57433;SDS011;43277;52.672;6.984;2022-10-13T02:54:17;26.55;;;16.50;;
57433;SDS011;43277;52.672;6.984;2022-10-13T02:56:43;28.48;;;16.63;;
57433;SDS011;43277;52.672;6.984;2022-10-13T02:59:08;23.80;;;17.17;;
57433;SDS011;43277;52.672;6.984;2022-10-13T03:01:34;23.67;;;16.38;;
57433;SDS011;43277;52.672;6.984;2022-10-13T03:04:05;23.77;;;15.65;;
57433;SDS011;43277;52.672;6.984;2022-10-13T03:06:31;25.05;;;16.20;;
57433;SDS011;43277;52.672;6.984;2022-10-13T03:08:57;26.05;;;16.08;;
57433;SDS011;43277;52.672;6.984;2022-10-13T03:11:23;22.65;;;15.43;;
57433;SDS011;43277;52.672;6.984;2022-10-13T03:13:48;24.73;;;15.95;;
57433;SDS011;43277;52.672;6.984;2022-10-13T03:16:14;25.33;;;16.80;;
57433;SDS011;43277;52.672;6.984;2022-10-13T03:18:40;25.83;;;16.40;;
57433;SDS011;43277;52.672;6.984;2022-10-13T03:21:05;24.33;;;15.52;;
57433;SDS011;43277;52.672;6.984;2022-10-13T03:23:31;25.17;;;16.08;;
57433;SDS011;43277;52.672;6.984;2022-10-13T03:25:57;23.65;;;16.20;;
57433;SDS011;43277;52.672;6.984;2022-10-13T03:28:23;21.98;;;15.43;;
57433;SDS011;43277;52.672;6.984;2022-10-13T03:30:49;22.63;;;15.55;;
57433;SDS011;43277;52.672;6.984;2022-10-13T03:33:15;25.20;;;16.38;;
57433;SDS011;43277;52.672;6.984;2022-10-13T03:35:40;22.23;;;16.45;;
57433;SDS011;43277;52.672;6.984;2022-10-13T03:38:06;23.13;;;16.10;;
57433;SDS011;43277;52.672;6.984;2022-10-13T03:40:34;24.05;;;17.00;;
57433;SDS011;43277;52.672;6.984;2022-10-13T03:43:00;24.10;;;16.33;;
57433;SDS011;43277;52.672;6.984;2022-10-13T03:45:25;23.90;;;16.33;;
57433;SDS011;43277;52.672;6.984;2022-10-13T03:47:51;27.70;;;16.85;;
57433;SDS011;43277;52.672;6.984;2022-10-13T03:50:17;25.10;;;16.35;;
57433;SDS011;43277;52.672;6.984;2022-10-13T03:52:42;25.67;;;17.48;;
57433;SDS011;43277;52.672;6.984;2022-10-13T03:55:08;29.48;;;16.73;;
57433;SDS011;43277;52.672;6.984;2022-10-13T03:57:33;26.55;;;17.08;;
57433;SDS011;43277;52.672;6.984;2022-10-13T03:59:59;26.88;;;17.73;;
57433;SDS011;43277;52.672;6.984;2022-10-13T04:02:25;22.20;;;16.52;;
57433;SDS011;43277;52.672;6.984;2022-10-13T04:04:51;24.42;;;16.60;;
57433;SDS011;43277;52.672;6.984;2022-10-13T04:07:16;23.80;;;16.73;;
57433;SDS011;43277;52.672;6.984;2022-10-13T04:09:42;21.27;;;15.52;;
57433;SDS011;43277;52.672;6.984;2022-10-13T04:12:08;28.48;;;17.45;;
57433;SDS011;43277;52.672;6.984;2022-10-13T04:14:33;30.10;;;17.60;;
57433;SDS011;43277;52.672;6.984;2022-10-13T04:16:59;26.75;;;17.77;;
57433;SDS011;43277;52.672;6.984;2022-10-13T04:19:24;23.80;;;16.27;;
57433;SDS011;43277;52.672;6.984;2022-10-13T04:21:50;24.48;;;16.63;;
57433;SDS011;43277;52.672;6.984;2022-10-13T04:24:16;25.90;;;16.73;;
57433;SDS011;43277;52.672;6.984;2022-10-13T04:26:42;24.40;;;17.00;;
57433;SDS011;43277;52.672;6.984;2022-10-13T04:29:09;23.27;;;16.52;;
57433;SDS011;43277;52.672;6.984;2022-10-13T04:31:35;22.88;;;16.83;;
57433;SDS011;43277;52.672;6.984;2022-10-13T04:34:01;26.05;;;17.88;;
57433;SDS011;43277;52.672;6.984;2022-10-13T04:36:27;25.88;;;17.55;;
57433;SDS011;43277;52.672;6.984;2022-10-13T04:38:53;24.98;;;17.08;;
57433;SDS011;43277;52.672;6.984;2022-10-13T04:41:19;24.15;;;17.05;;
57433;SDS011;43277;52.672;6.984;2022-10-13T04:43:48;23.35;;;16.88;;
57433;SDS011;43277;52.672;6.984;2022-10-13T04:46:22;25.02;;;17.08;;
57433;SDS011;43277;52.672;6.984;2022-10-13T04:48:51;24.77;;;17.33;;
57433;SDS011;43277;52.672;6.984;2022-10-13T04:51:18;26.27;;;17.27;;
57433;SDS011;43277;52.672;6.984;2022-10-13T04:53:46;26.27;;;17.33;;
57433;SDS011;43277;52.672;6.984;2022-10-13T04:56:13;26.73;;;17.77;;
57433;SDS011;43277;52.672;6.984;2022-10-13T04:58:40;27.80;;;18.30;;
57433;SDS011;43277;52.672;6.984;2022-10-13T05:01:10;26.05;;;17.70;;
57433;SDS011;43277;52.672;6.984;2022-10-13T05:03:37;26.73;;;17.70;;
57433;SDS011;43277;52.672;6.984;2022-10-13T05:06:03;25.98;;;17.63;;
57433;SDS011;43277;52.672;6.984;2022-10-13T05:08:28;25.15;;;18.77;;
57433;SDS011;43277;52.672;6.984;2022-10-13T05:13:21;28.42;;;19.42;;
57433;SDS011;43277;52.672;6.984;2022-10-13T05:15:47;26.10;;;18.85;;
57433;SDS011;43277;52.672;6.984;2022-10-13T05:18:13;23.95;;;17.65;;
57433;SDS011;43277;52.672;6.984;2022-10-13T05:20:38;23.80;;;17.10;;
57433;SDS011;43277;52.672;6.984;2022-10-13T05:23:04;26.70;;;18.70;;
57433;SDS011;43277;52.672;6.984;2022-10-13T05:25:30;28.88;;;18.33;;
57433;SDS011;43277;52.672;6.984;2022-10-13T05:27:55;26.92;;;18.00;;
57433;SDS011;43277;52.672;6.984;2022-10-13T05:30:21;27.20;;;18.50;;
57433;SDS011;43277;52.672;6.984;2022-10-13T05:32:46;28.35;;;18.40;;
57433;SDS011;43277;52.672;6.984;2022-10-13T05:35:12;25.80;;;18.50;;
57433;SDS011;43277;52.672;6.984;2022-10-13T05:37:37;26.73;;;18.48;;
57433;SDS011;43277;52.672;6.984;2022-10-13T05:40:03;28.75;;;18.38;;
57433;SDS011;43277;52.672;6.984;2022-10-13T05:42:29;26.10;;;18.65;;
57433;SDS011;43277;52.672;6.984;2022-10-13T05:44:55;27.38;;;19.40;;
57433;SDS011;43277;52.672;6.984;2022-10-13T05:47:21;28.70;;;19.55;;
57433;SDS011;43277;52.672;6.984;2022-10-13T05:49:50;27.02;;;20.02;;
57433;SDS011;43277;52.672;6.984;2022-10-13T05:52:16;29.73;;;19.23;;
57433;SDS011;43277;52.672;6.984;2022-10-13T05:54:43;25.30;;;17.67;;
57433;SDS011;43277;52.672;6.984;2022-10-13T05:57:29;25.60;;;19.30;;
57433;SDS011;43277;52.672;6.984;2022-10-13T05:59:58;31.15;;;19.60;;
57433;SDS011;43277;52.672;6.984;2022-10-13T06:02:25;25.00;;;18.80;;
57433;SDS011;43277;52.672;6.984;2022-10-13T06:04:58;26.08;;;18.63;;
57433;SDS011;43277;52.672;6.984;2022-10-13T06:07:23;28.20;;;20.60;;
57433;SDS011;43277;52.672;6.984;2022-10-13T06:09:49;29.17;;;19.83;;
57433;SDS011;43277;52.672;6.984;2022-10-13T06:12:15;27.30;;;19.52;;
57433;SDS011;43277;52.672;6.984;2022-10-13T06:14:40;25.17;;;19.75;;
57433;SDS011;43277;52.672;6.984;2022-10-13T06:17:06;30.90;;;19.52;;
57433;SDS011;43277;52.672;6.984;2022-10-13T06:19:32;28.10;;;19.77;;
57433;SDS011;43277;52.672;6.984;2022-10-13T06:21:58;27.83;;;19.90;;
57433;SDS011;43277;52.672;6.984;2022-10-13T06:24:23;29.58;;;22.10;;
57433;SDS011;43277;52.672;6.984;2022-10-13T06:26:49;30.10;;;22.35;;
57433;SDS011;43277;52.672;6.984;2022-10-13T06:29:14;27.55;;;20.40;;
57433;SDS011;43277;52.672;6.984;2022-10-13T06:31:40;24.98;;;20.13;;
57433;SDS011;43277;52.672;6.984;2022-10-13T06:34:05;28.38;;;19.65;;
57433;SDS011;43277;52.672;6.984;2022-10-13T06:36:31;26.15;;;18.67;;
57433;SDS011;43277;52.672;6.984;2022-10-13T06:38:59;32.60;;;19.38;;
57433;SDS011;43277;52.672;6.984;2022-10-13T06:41:24;29.42;;;20.30;;
57433;SDS011;43277;52.672;6.984;2022-10-13T06:43:50;29.35;;;21.02;;
57433;SDS011;43277;52.672;6.984;2022-10-13T06:46:16;27.83;;;20.02;;
57433;SDS011;43277;52.672;6.984;2022-10-13T06:48:41;28.95;;;20.90;;
57433;SDS011;43277;52.672;6.984;2022-10-13T06:51:08;32.60;;;21.10;;
57433;SDS011;43277;52.672;6.984;2022-10-13T06:53:34;27.48;;;21.40;;
57433;SDS011;43277;52.672;6.984;2022-10-13T06:56:01;29.73;;;21.02;;
57433;SDS011;43277;52.672;6.984;2022-10-13T06:58:28;30.83;;;21.08;;
57433;SDS011;43277;52.672;6.984;2022-10-13T07:00:55;31.70;;;20.80;;
57433;SDS011;43277;52.672;6.984;2022-10-13T07:03:21;28.20;;;21.08;;
57433;SDS011;43277;52.672;6.984;2022-10-13T07:05:48;30.38;;;22.38;;
57433;SDS011;43277;52.672;6.984;2022-10-13T07:08:13;30.23;;;21.73;;
57433;SDS011;43277;52.672;6.984;2022-10-13T07:10:39;25.67;;;19.98;;
57433;SDS011;43277;52.672;6.984;2022-10-13T07:13:05;33.53;;;21.63;;
57433;SDS011;43277;52.672;6.984;2022-10-13T07:15:31;29.92;;;20.83;;
57433;SDS011;43277;52.672;6.984;2022-10-13T07:17:56;28.00;;;20.23;;
57433;SDS011;43277;52.672;6.984;2022-10-13T07:20:23;31.88;;;21.15;;
57433;SDS011;43277;52.672;6.984;2022-10-13T07:22:51;24.85;;;20.17;;
57433;SDS011;43277;52.672;6.984;2022-10-13T07:25:17;26.88;;;20.52;;
57433;SDS011;43277;52.672;6.984;2022-10-13T07:27:43;30.40;;;21.08;;
57433;SDS011;43277;52.672;6.984;2022-10-13T07:30:08;31.23;;;20.33;;
57433;SDS011;43277;52.672;6.984;2022-10-13T07:32:36;28.05;;;21.75;;
57433;SDS011;43277;52.672;6.984;2022-10-13T07:35:03;24.48;;;19.90;;
57433;SDS011;43277;52.672;6.984;2022-10-13T07:37:29;24.63;;;18.70;;
57433;SDS011;43277;52.672;6.984;2022-10-13T07:39:55;24.42;;;19.48;;
57433;SDS011;43277;52.672;6.984;2022-10-13T07:42:20;26.92;;;20.20;;
57433;SDS011;43277;52.672;6.984;2022-10-13T07:44:46;25.23;;;20.30;;
57433;SDS011;43277;52.672;6.984;2022-10-13T07:47:12;28.25;;;20.13;;
57433;SDS011;43277;52.672;6.984;2022-10-13T07:49:37;30.80;;;20.90;;
57433;SDS011;43277;52.672;6.984;2022-10-13T07:52:03;27.95;;;21.33;;
57433;SDS011;43277;52.672;6.984;2022-10-13T07:54:28;26.05;;;19.83;;
57433;SDS011;43277;52.672;6.984;2022-10-13T07:56:55;28.88;;;20.42;;
57433;SDS011;43277;52.672;6.984;2022-10-13T07:59:20;28.52;;;20.00;;
57433;SDS011;43277;52.672;6.984;2022-10-13T08:01:47;28.90;;;19.45;;
57433;SDS011;43277;52.672;6.984;2022-10-13T08:04:12;25.95;;;18.08;;
57433;SDS011;43277;52.672;6.984;2022-10-13T08:06:38;25.85;;;19.33;;
57433;SDS011;43277;52.672;6.984;2022-10-13T08:09:04;24.80;;;19.17;;
57433;SDS011;43277;52.672;6.984;2022-10-13T08:11:30;26.92;;;18.27;;
57433;SDS011;43277;52.672;6.984;2022-10-13T08:13:56;29.98;;;19.70;;
57433;SDS011;43277;52.672;6.984;2022-10-13T08:16:25;27.80;;;18.55;;
57433;SDS011;43277;52.672;6.984;2022-10-13T08:18:51;26.55;;;19.27;;
57433;SDS011;43277;52.672;6.984;2022-10-13T08:21:18;28.40;;;19.20;;
57433;SDS011;43277;52.672;6.984;2022-10-13T08:23:46;26.80;;;18.98;;
57433;SDS011;43277;52.672;6.984;2022-10-13T08:26:17;21.70;;;18.02;;
57433;SDS011;43277;52.672;6.984;2022-10-13T08:28:48;24.23;;;18.73;;
57433;SDS011;43277;52.672;6.984;2022-10-13T08:31:14;24.55;;;18.67;;
57433;SDS011;43277;52.672;6.984;2022-10-13T08:33:39;24.98;;;18.55;;
57433;SDS011;43277;52.672;6.984;2022-10-13T08:36:05;27.33;;;19.08;;
57433;SDS011;43277;52.672;6.984;2022-10-13T08:38:32;29.85;;;19.10;;
57433;SDS011;43277;52.672;6.984;2022-10-13T08:40:58;28.85;;;17.67;;
57433;SDS011;43277;52.672;6.984;2022-10-13T08:43:24;25.25;;;17.25;;
57433;SDS011;43277;52.672;6.984;2022-10-13T08:45:51;23.55;;;17.30;;
57433;SDS011;43277;52.672;6.984;2022-10-13T08:50:49;23.30;;;16.20;;
57433;SDS011;43277;52.672;6.984;2022-10-13T08:56:06;25.15;;;16.20;;
57433;SDS011;43277;52.672;6.984;2022-10-13T08:58:34;23.30;;;15.13;;
57433;SDS011;43277;52.672;6.984;2022-10-13T09:01:10;24.00;;;15.60;;
57433;SDS011;43277;52.672;6.984;2022-10-13T09:09:27;29.15;;;15.05;;
57433;SDS011;43277;52.672;6.984;2022-10-13T09:11:52;19.83;;;14.82;;
57433;SDS011;43277;52.672;6.984;2022-10-13T09:16:55;21.58;;;14.15;;
57433;SDS011;43277;52.672;6.984;2022-10-13T09:19:36;27.25;;;14.88;;
57433;SDS011;43277;52.672;6.984;2022-10-13T09:27:47;22.08;;;14.48;;
57433;SDS011;43277;52.672;6.984;2022-10-13T09:30:22;27.10;;;15.90;;
57433;SDS011;43277;52.672;6.984;2022-10-13T09:33:21;29.23;;;15.88;;
57433;SDS011;43277;52.672;6.984;2022-10-13T09:38:21;22.65;;;15.98;;
57433;SDS011;43277;52.672;6.984;2022-10-13T09:43:27;22.10;;;15.82;;
57433;SDS011;43277;52.672;6.984;2022-10-13T09:45:56;23.27;;;15.45;;
57433;SDS011;43277;52.672;6.984;2022-10-13T09:48:24;23.17;;;16.17;;
57433;SDS011;43277;52.672;6.984;2022-10-13T09:50:55;24.33;;;16.83;;
57433;SDS011;43277;52.672;6.984;2022-10-13T09:56:07;24.15;;;17.42;;
57433;SDS011;43277;52.672;6.984;2022-10-13T09:58:44;23.25;;;16.85;;
57433;SDS011;43277;52.672;6.984;2022-10-13T10:01:21;21.05;;;16.75;;
57433;SDS011;43277;52.672;6.984;2022-10-13T10:03:50;21.13;;;16.80;;
57433;SDS011;43277;52.672;6.984;2022-10-13T10:06:17;21.40;;;16.08;;
57433;SDS011;43277;52.672;6.984;2022-10-13T10:08:54;22.17;;;16.85;;
57433;SDS011;43277;52.672;6.984;2022-10-13T10:11:32;23.80;;;17.08;;
57433;SDS011;43277;52.672;6.984;2022-10-13T10:19:27;21.27;;;16.23;;
57433;SDS011;43277;52.672;6.984;2022-10-13T10:22:06;22.88;;;16.60;;
57433;SDS011;43277;52.672;6.984;2022-10-13T10:27:58;19.50;;;15.27;;
57433;SDS011;43277;52.672;6.984;2022-10-13T10:30:29;20.10;;;15.03;;
57433;SDS011;43277;52.672;6.984;2022-10-13T10:33:10;22.63;;;17.45;;
57433;SDS011;43277;52.672;6.984;2022-10-13T10:35:49;25.50;;;15.35;;
57433;SDS011;43277;52.672;6.984;2022-10-13T10:38:40;20.33;;;15.13;;
57433;SDS011;43277;52.672;6.984;2022-10-13T10:46:41;21.02;;;16.50;;
57433;SDS011;43277;52.672;6.984;2022-10-13T10:49:18;22.08;;;16.70;;
57433;SDS011;43277;52.672;6.984;2022-10-13T10:51:49;24.02;;;17.20;;
57433;SDS011;43277;52.672;6.984;2022-10-13T10:54:33;23.17;;;16.40;;
57433;SDS011;43277;52.672;6.984;2022-10-13T11:05:13;20.50;;;16.88;;
57433;SDS011;43277;52.672;6.984;2022-10-13T11:15:27;25.90;;;18.42;;
57433;SDS011;43277;52.672;6.984;2022-10-13T11:21:07;23.48;;;19.10;;
57433;SDS011;43277;52.672;6.984;2022-10-13T11:23:33;23.00;;;19.60;;
57433;SDS011;43277;52.672;6.984;2022-10-13T11:26:19;25.13;;;19.63;;
57433;SDS011;43277;52.672;6.984;2022-10-13T11:29:14;24.10;;;20.80;;
57433;SDS011;43277;52.672;6.984;2022-10-13T11:31:47;25.77;;;20.70;;
57433;SDS011;43277;52.672;6.984;2022-10-13T11:34:25;27.27;;;21.30;;
57433;SDS011;43277;52.672;6.984;2022-10-13T11:36:54;25.27;;;20.20;;
57433;SDS011;43277;52.672;6.984;2022-10-13T11:44:45;26.45;;;20.73;;
57433;SDS011;43277;52.672;6.984;2022-10-13T11:52:48;26.10;;;20.05;;
57433;SDS011;43277;52.672;6.984;2022-10-13T12:00:55;28.23;;;20.67;;
57433;SDS011;43277;52.672;6.984;2022-10-13T12:03:43;26.95;;;20.75;;
57433;SDS011;43277;52.672;6.984;2022-10-13T12:09:12;23.73;;;20.10;;
57433;SDS011;43277;52.672;6.984;2022-10-13T12:11:43;24.60;;;19.85;;
57433;SDS011;43277;52.672;6.984;2022-10-13T12:14:19;28.08;;;20.88;;
57433;SDS011;43277;52.672;6.984;2022-10-13T12:16:54;28.02;;;21.30;;
57433;SDS011;43277;52.672;6.984;2022-10-13T12:19:22;29.50;;;22.30;;
57433;SDS011;43277;52.672;6.984;2022-10-13T12:21:50;27.80;;;21.13;;
57433;SDS011;43277;52.672;6.984;2022-10-13T12:24:20;25.83;;;22.15;;
57433;SDS011;43277;52.672;6.984;2022-10-13T12:26:47;30.25;;;23.55;;
57433;SDS011;43277;52.672;6.984;2022-10-13T12:29:13;30.73;;;21.65;;
57433;SDS011;43277;52.672;6.984;2022-10-13T12:31:43;30.10;;;23.13;;
57433;SDS011;43277;52.672;6.984;2022-10-13T12:34:18;25.33;;;20.05;;
57433;SDS011;43277;52.672;6.984;2022-10-13T12:36:51;25.48;;;21.70;;
57433;SDS011;43277;52.672;6.984;2022-10-13T12:39:20;25.27;;;21.23;;
57433;SDS011;43277;52.672;6.984;2022-10-13T12:41:46;26.73;;;20.95;;
57433;SDS011;43277;52.672;6.984;2022-10-13T12:44:19;27.33;;;21.95;;
57433;SDS011;43277;52.672;6.984;2022-10-13T12:46:47;24.23;;;19.65;;
57433;SDS011;43277;52.672;6.984;2022-10-13T12:49:26;24.42;;;19.77;;
57433;SDS011;43277;52.672;6.984;2022-10-13T12:51:57;23.83;;;19.80;;
57433;SDS011;43277;52.672;6.984;2022-10-13T12:54:28;26.95;;;19.80;;
57433;SDS011;43277;52.672;6.984;2022-10-13T12:56:57;24.17;;;19.98;;
57433;SDS011;43277;52.672;6.984;2022-10-13T12:59:25;21.95;;;18.13;;
57433;SDS011;43277;52.672;6.984;2022-10-13T13:01:53;24.00;;;18.33;;
57433;SDS011;43277;52.672;6.984;2022-10-13T13:06:56;22.10;;;18.73;;
57433;SDS011;43277;52.672;6.984;2022-10-13T13:09:33;24.55;;;19.02;;
57433;SDS011;43277;52.672;6.984;2022-10-13T13:12:21;21.65;;;18.15;;
57433;SDS011;43277;52.672;6.984;2022-10-13T13:14:51;22.50;;;17.65;;
57433;SDS011;43277;52.672;6.984;2022-10-13T13:19:51;24.65;;;17.20;;
57433;SDS011;43277;52.672;6.984;2022-10-13T13:22:17;25.05;;;17.17;;
57433;SDS011;43277;52.672;6.984;2022-10-13T13:24:43;19.75;;;15.57;;
57433;SDS011;43277;52.672;6.984;2022-10-13T13:27:16;23.77;;;16.88;;
57433;SDS011;43277;52.672;6.984;2022-10-13T13:29:42;21.67;;;15.93;;
57433;SDS011;43277;52.672;6.984;2022-10-13T13:32:10;21.05;;;14.63;;
57433;SDS011;43277;52.672;6.984;2022-10-13T13:34:37;18.63;;;14.18;;
57433;SDS011;43277;52.672;6.984;2022-10-13T13:37:03;21.40;;;13.63;;
57433;SDS011;43277;52.672;6.984;2022-10-13T13:39:28;20.00;;;13.20;;
57433;SDS011;43277;52.672;6.984;2022-10-13T13:41:54;18.60;;;13.07;;
57433;SDS011;43277;52.672;6.984;2022-10-13T13:44:19;18.50;;;13.23;;
57433;SDS011;43277;52.672;6.984;2022-10-13T13:46:45;17.77;;;13.25;;
57433;SDS011;43277;52.672;6.984;2022-10-13T13:49:10;22.55;;;12.68;;
57433;SDS011;43277;52.672;6.984;2022-10-13T13:51:36;21.08;;;13.95;;
57433;SDS011;43277;52.672;6.984;2022-10-13T13:54:02;19.10;;;13.75;;
57433;SDS011;43277;52.672;6.984;2022-10-13T13:56:28;19.45;;;12.90;;
57433;SDS011;43277;52.672;6.984;2022-10-13T13:58:54;19.40;;;14.73;;
57433;SDS011;43277;52.672;6.984;2022-10-13T14:01:19;21.63;;;13.77;;
57433;SDS011;43277;52.672;6.984;2022-10-13T14:03:45;18.80;;;13.15;;
57433;SDS011;43277;52.672;6.984;2022-10-13T14:06:17;18.92;;;13.55;;
57433;SDS011;43277;52.672;6.984;2022-10-13T14:08:44;20.08;;;14.80;;
57433;SDS011;43277;52.672;6.984;2022-10-13T14:11:10;21.20;;;14.20;;
57433;SDS011;43277;52.672;6.984;2022-10-13T14:13:36;22.95;;;14.20;;
57433;SDS011;43277;52.672;6.984;2022-10-13T14:16:02;19.63;;;14.63;;
57433;SDS011;43277;52.672;6.984;2022-10-13T14:18:28;21.67;;;14.95;;
57433;SDS011;43277;52.672;6.984;2022-10-13T14:20:54;21.63;;;13.80;;
57433;SDS011;43277;52.672;6.984;2022-10-13T14:23:20;21.98;;;13.55;;
57433;SDS011;43277;52.672;6.984;2022-10-13T14:25:46;21.92;;;13.80;;
57433;SDS011;43277;52.672;6.984;2022-10-13T14:28:11;19.73;;;13.50;;
57433;SDS011;43277;52.672;6.984;2022-10-13T14:30:38;23.05;;;13.63;;
57433;SDS011;43277;52.672;6.984;2022-10-13T14:33:04;21.90;;;13.68;;
57433;SDS011;43277;52.672;6.984;2022-10-13T14:35:30;25.60;;;14.20;;
57433;SDS011;43277;52.672;6.984;2022-10-13T14:37:55;20.45;;;12.65;;
57433;SDS011;43277;52.672;6.984;2022-10-13T14:40:22;18.80;;;12.25;;
57433;SDS011;43277;52.672;6.984;2022-10-13T14:42:47;19.48;;;12.63;;
57433;SDS011;43277;52.672;6.984;2022-10-13T14:45:13;18.13;;;11.85;;
57433;SDS011;43277;52.672;6.984;2022-10-13T14:47:39;16.80;;;11.73;;
57433;SDS011;43277;52.672;6.984;2022-10-13T14:50:05;17.27;;;11.57;;
57433;SDS011;43277;52.672;6.984;2022-10-13T14:52:32;18.70;;;10.20;;
57433;SDS011;43277;52.672;6.984;2022-10-13T14:54:57;16.25;;;10.85;;
57433;SDS011;43277;52.672;6.984;2022-10-13T14:57:23;18.40;;;11.48;;
57433;SDS011;43277;52.672;6.984;2022-10-13T14:59:48;22.98;;;11.10;;
57433;SDS011;43277;52.672;6.984;2022-10-13T15:02:14;18.38;;;11.90;;
57433;SDS011;43277;52.672;6.984;2022-10-13T15:04:40;18.35;;;11.30;;
57433;SDS011;43277;52.672;6.984;2022-10-13T15:07:05;16.63;;;12.00;;
57433;SDS011;43277;52.672;6.984;2022-10-13T15:09:31;17.60;;;11.95;;
57433;SDS011;43277;52.672;6.984;2022-10-13T15:11:57;16.20;;;11.77;;
57433;SDS011;43277;52.672;6.984;2022-10-13T15:14:22;19.13;;;12.68;;
57433;SDS011;43277;52.672;6.984;2022-10-13T15:16:48;18.60;;;12.52;;
57433;SDS011;43277;52.672;6.984;2022-10-13T15:19:14;17.63;;;11.82;;
57433;SDS011;43277;52.672;6.984;2022-10-13T15:21:39;21.23;;;12.70;;
57433;SDS011;43277;52.672;6.984;2022-10-13T15:24:05;17.90;;;13.70;;
57433;SDS011;43277;52.672;6.984;2022-10-13T15:26:31;20.30;;;13.98;;
57433;SDS011;43277;52.672;6.984;2022-10-13T15:28:57;18.73;;;14.90;;
57433;SDS011;43277;52.672;6.984;2022-10-13T15:31:23;20.00;;;14.23;;
57433;SDS011;43277;52.672;6.984;2022-10-13T15:33:50;24.25;;;16.52;;
57433;SDS011;43277;52.672;6.984;2022-10-13T15:36:17;22.08;;;17.50;;
57433;SDS011;43277;52.672;6.984;2022-10-13T15:38:44;24.35;;;18.02;;
57433;SDS011;43277;52.672;6.984;2022-10-13T15:41:10;24.58;;;17.70;;
57433;SDS011;43277;52.672;6.984;2022-10-13T15:43:36;22.77;;;16.63;;
57433;SDS011;43277;52.672;6.984;2022-10-13T15:46:06;26.60;;;20.00;;
57433;SDS011;43277;52.672;6.984;2022-10-13T15:48:34;25.92;;;20.35;;
57433;SDS011;43277;52.672;6.984;2022-10-13T15:51:00;22.73;;;18.65;;
57433;SDS011;43277;52.672;6.984;2022-10-13T15:53:25;27.13;;;21.48;;
57433;SDS011;43277;52.672;6.984;2022-10-13T15:55:51;25.83;;;18.33;;
57433;SDS011;43277;52.672;6.984;2022-10-13T15:58:17;23.75;;;19.40;;
57433;SDS011;43277;52.672;6.984;2022-10-13T16:00:43;26.00;;;19.63;;
57433;SDS011;43277;52.672;6.984;2022-10-13T16:03:12;24.42;;;19.83;;
57433;SDS011;43277;52.672;6.984;2022-10-13T16:05:39;23.98;;;19.25;;
57433;SDS011;43277;52.672;6.984;2022-10-13T16:08:06;25.73;;;19.55;;
57433;SDS011;43277;52.672;6.984;2022-10-13T16:10:32;20.25;;;18.08;;
57433;SDS011;43277;52.672;6.984;2022-10-13T16:12:57;22.00;;;18.20;;
57433;SDS011;43277;52.672;6.984;2022-10-13T16:15:23;25.65;;;19.35;;
57433;SDS011;43277;52.672;6.984;2022-10-13T16:17:49;22.10;;;18.80;;
57433;SDS011;43277;52.672;6.984;2022-10-13T16:20:15;24.08;;;19.65;;